createdAt,value
2022-08-09T00:01:42.816Z,99.90
2022-08-09T00:04:34.662Z,99.90
2022-08-09T00:07:03.657Z,99.90
2022-08-09T00:09:35.289Z,99.90
2022-08-09T00:12:05.030Z,99.90
2022-08-09T00:14:38.060Z,99.90
2022-08-09T00:17:06.954Z,99.90
2022-08-09T00:19:34.254Z,99.90
2022-08-09T00:22:03.605Z,99.90
2022-08-09T00:24:32.286Z,99.90
2022-08-09T00:27:00.584Z,99.90
2022-08-09T00:30:09.901Z,99.90
2022-08-09T00:32:26.941Z,99.90
2022-08-09T00:34:55.413Z,99.90
2022-08-09T00:37:23.009Z,99.90
2022-08-09T00:40:14.128Z,99.90
2022-08-09T00:44:13.805Z,99.90
2022-08-09T00:45:26.234Z,99.90
2022-08-09T00:47:55.434Z,99.90
2022-08-09T00:50:24.277Z,99.90
2022-08-09T00:52:52.679Z,99.90
2022-08-09T00:56:03.179Z,99.90
2022-08-09T00:58:09.048Z,99.90
2022-08-09T01:00:40.666Z,99.90
2022-08-09T01:03:28.454Z,99.90
2022-08-09T01:06:18.050Z,99.90
2022-08-09T01:09:23.245Z,99.90
2022-08-09T01:11:55.946Z,99.90
2022-08-09T01:14:30.383Z,99.90
2022-08-09T01:17:12.351Z,99.90
2022-08-09T01:19:57.007Z,99.90
2022-08-09T01:22:42.553Z,99.90
2022-08-09T01:25:53.983Z,99.90
2022-08-09T01:28:23.510Z,99.90
2022-08-09T01:30:59.115Z,99.90
2022-08-09T01:33:29.464Z,99.90
2022-08-09T01:36:08.844Z,99.90
2022-08-09T01:38:40.037Z,99.90
2022-08-09T01:41:17.832Z,99.90
2022-08-09T01:43:50.485Z,99.90
2022-08-09T01:46:24.910Z,99.90
2022-08-09T01:49:00.132Z,99.90
2022-08-09T01:51:39.185Z,99.90
2022-08-09T01:54:11.144Z,99.90
2022-08-09T01:56:41.889Z,99.90
2022-08-09T01:59:16.130Z,99.90
2022-08-09T02:01:58.390Z,99.90
2022-08-09T02:04:30.229Z,99.90
2022-08-09T02:07:02.706Z,99.90
2022-08-09T02:09:42.446Z,99.90
2022-08-09T02:12:13.477Z,99.90
2022-08-09T02:14:52.011Z,99.90
2022-08-09T02:17:59.440Z,99.90
2022-08-09T02:20:11.780Z,99.90
2022-08-09T02:23:00.074Z,99.90
2022-08-09T02:25:30.640Z,99.90
2022-08-09T02:28:04.030Z,99.90
2022-08-09T02:30:55.803Z,99.90
2022-08-09T02:33:37.743Z,99.90
2022-08-09T02:36:16.735Z,99.90
2022-08-09T02:38:50.540Z,99.90
2022-08-09T02:41:28.112Z,99.90
2022-08-09T02:44:10.262Z,99.90
2022-08-09T02:46:42.500Z,99.90
2022-08-09T02:49:16.085Z,99.90
2022-08-09T02:51:46.992Z,99.90
2022-08-09T02:54:16.718Z,99.90
2022-08-09T02:56:51.264Z,99.90
2022-08-09T02:59:26.370Z,99.90
2022-08-09T03:02:07.114Z,99.90
2022-08-09T03:04:41.833Z,99.90
2022-08-09T03:07:12.413Z,99.90
2022-08-09T03:09:43.799Z,99.90
2022-08-09T03:12:26.011Z,99.90
2022-08-09T03:14:57.395Z,99.90
2022-08-09T03:17:27.203Z,99.90
2022-08-09T03:20:03.285Z,99.90
2022-08-09T03:22:41.856Z,99.90
2022-08-09T03:25:25.849Z,99.90
2022-08-09T03:27:59.266Z,99.90
2022-08-09T03:30:33.200Z,99.90
2022-08-09T03:33:13.007Z,99.90
2022-08-09T03:36:16.594Z,99.90
2022-08-09T03:38:32.767Z,99.90
2022-08-09T03:41:00.368Z,99.90
2022-08-09T03:43:31.838Z,99.90
2022-08-09T03:46:05.197Z,99.90
2022-08-09T03:48:55.095Z,99.90
2022-08-09T03:51:55.814Z,99.90
2022-08-09T03:54:11.967Z,99.90
2022-08-09T03:56:41.161Z,99.90
2022-08-09T03:59:17.099Z,99.90
2022-08-09T04:01:50.627Z,99.90
2022-08-09T04:04:18.908Z,99.90
2022-08-09T04:06:49.336Z,99.90
2022-08-09T04:09:47.693Z,99.90
2022-08-09T04:12:12.043Z,99.90
2022-08-09T04:15:01.873Z,99.90
2022-08-09T04:17:42.506Z,99.90
2022-08-09T04:20:12.744Z,99.90
2022-08-09T04:22:41.341Z,99.90
2022-08-09T04:25:13.010Z,99.90
2022-08-09T04:27:40.618Z,99.90
2022-08-09T04:30:23.346Z,99.90
2022-08-09T04:32:54.059Z,99.90
2022-08-09T04:35:21.790Z,99.90
2022-08-09T04:37:49.249Z,99.90
2022-08-09T04:40:28.596Z,99.90
2022-08-09T04:43:04.019Z,99.90
2022-08-09T04:45:36.220Z,99.90
2022-08-09T04:48:20.079Z,99.90
2022-08-09T04:50:50.071Z,99.90
2022-08-09T04:53:17.226Z,99.90
2022-08-09T04:55:57.721Z,99.90
2022-08-09T04:58:31.903Z,99.90
2022-08-09T05:01:01.983Z,99.90
2022-08-09T05:03:40.142Z,99.90
2022-08-09T05:06:11.442Z,99.90
2022-08-09T05:08:38.887Z,99.90
2022-08-09T05:11:11.341Z,99.90
2022-08-09T05:13:39.196Z,99.90
2022-08-09T05:16:10.350Z,99.90
2022-08-09T05:18:55.110Z,99.90
2022-08-09T05:21:30.259Z,99.90
2022-08-09T05:24:04.874Z,99.90
2022-08-09T05:26:37.007Z,99.90
2022-08-09T05:29:17.328Z,99.90
2022-08-09T05:31:56.161Z,99.90
2022-08-09T05:34:30.887Z,99.90
2022-08-09T05:37:07.043Z,99.90
2022-08-09T05:39:43.223Z,99.90
2022-08-09T05:42:20.607Z,99.90
2022-08-09T05:44:51.006Z,99.90
2022-08-09T05:47:21.529Z,99.90
2022-08-09T05:50:25.547Z,99.90
2022-08-09T05:52:39.508Z,98.90
2022-08-09T05:55:08.519Z,97.40
2022-08-09T05:57:51.297Z,97.10
2022-08-09T06:00:25.008Z,97.80
2022-08-09T06:02:54.509Z,96.80
2022-08-09T06:05:31.284Z,96.90
2022-08-09T06:08:13.185Z,96.80
2022-08-09T06:10:40.323Z,97.00
2022-08-09T06:13:12.414Z,95.30
2022-08-09T06:15:47.193Z,94.40
2022-08-09T06:18:18.028Z,94.00
2022-08-09T06:20:54.217Z,92.40
2022-08-09T06:23:54.947Z,92.90
2022-08-09T06:26:20.389Z,91.80
2022-08-09T06:29:01.103Z,90.90
2022-08-09T06:31:40.553Z,91.20
2022-08-09T06:34:22.909Z,88.30
2022-08-09T06:36:59.221Z,85.80
2022-08-09T06:39:49.069Z,84.50
2022-08-09T06:42:17.497Z,83.70
2022-08-09T06:44:53.999Z,82.00
2022-08-09T06:47:23.747Z,78.30
2022-08-09T06:50:14.442Z,77.40
2022-08-09T06:52:39.718Z,75.10
2022-08-09T06:55:12.567Z,71.80
2022-08-09T06:58:01.423Z,67.90
2022-08-09T07:00:52.114Z,68.30
2022-08-09T07:03:15.955Z,66.80
2022-08-09T07:06:03.056Z,65.60
2022-08-09T07:08:30.719Z,63.70
2022-08-09T07:10:57.756Z,63.80
2022-08-09T07:13:28.197Z,63.60
2022-08-09T07:16:42.047Z,60.80
2022-08-09T07:18:47.343Z,60.60
2022-08-09T07:21:18.723Z,60.00
2022-08-09T07:23:56.436Z,60.40
2022-08-09T07:26:26.571Z,57.90
2022-08-09T07:29:01.260Z,57.50
2022-08-09T07:31:46.088Z,56.80
2022-08-09T07:34:20.561Z,55.30
2022-08-09T07:36:52.866Z,55.50
2022-08-09T07:39:40.443Z,54.50
2022-08-09T07:42:07.638Z,55.90
2022-08-09T07:44:52.473Z,52.80
2022-08-09T07:47:39.520Z,52.70
2022-08-09T07:50:09.359Z,53.70
2022-08-09T07:52:37.419Z,53.60
2022-08-09T07:55:09.512Z,53.40
2022-08-09T07:57:46.895Z,54.40
2022-08-09T08:00:20.643Z,53.60
2022-08-09T08:03:04.573Z,53.70
2022-08-09T08:05:54.064Z,53.70
2022-08-09T08:09:02.065Z,53.80
2022-08-09T08:12:10.142Z,53.10
2022-08-09T08:13:57.276Z,52.70
2022-08-09T08:16:29.827Z,53.80
2022-08-09T08:19:03.133Z,55.10
2022-08-09T08:21:31.070Z,54.90
2022-08-09T08:24:01.416Z,54.60
2022-08-09T08:26:41.975Z,56.10
2022-08-09T08:29:28.223Z,54.90
2022-08-09T08:32:03.776Z,55.40
2022-08-09T08:34:33.552Z,56.80
2022-08-09T08:37:02.425Z,56.80
2022-08-09T08:39:29.475Z,58.00
2022-08-09T08:42:07.215Z,57.00
2022-08-09T08:44:38.088Z,57.70
2022-08-09T08:47:12.146Z,57.30
2022-08-09T08:49:47.266Z,57.90
2022-08-09T08:52:58.018Z,57.90
2022-08-09T08:55:10.551Z,58.00
2022-08-09T08:57:38.216Z,58.70
2022-08-09T09:00:16.997Z,59.00
2022-08-09T09:03:01.521Z,61.00
2022-08-09T09:05:59.821Z,59.80
2022-08-09T09:08:31.042Z,61.50
2022-08-09T09:11:03.229Z,62.20
2022-08-09T09:13:54.863Z,61.10
2022-08-09T09:16:30.677Z,61.20
2022-08-09T09:19:40.400Z,61.10
2022-08-09T09:22:07.695Z,61.60
2022-08-09T09:26:01.158Z,63.40
2022-08-09T09:28:06.663Z,62.50
2022-08-09T09:30:51.325Z,63.40
2022-08-09T09:33:18.337Z,63.80
2022-08-09T09:36:02.356Z,62.30
2022-08-09T09:38:47.946Z,62.90
2022-08-09T09:41:25.050Z,63.40
2022-08-09T09:44:10.819Z,63.60
2022-08-09T09:46:43.575Z,62.40
2022-08-09T09:49:23.587Z,63.30
2022-08-09T09:52:16.572Z,63.40
2022-08-09T09:55:16.832Z,65.40
2022-08-09T09:58:03.081Z,66.60
2022-08-09T10:00:32.314Z,66.80
2022-08-09T10:03:11.449Z,68.40
2022-08-09T10:06:04.746Z,68.90
2022-08-09T10:08:32.849Z,68.20
2022-08-09T10:12:01.446Z,68.30
2022-08-09T10:14:33.700Z,65.90
2022-08-09T10:17:38.673Z,67.20
2022-08-09T10:20:00.304Z,66.90
2022-08-09T10:22:33.643Z,67.40
2022-08-09T10:25:11.619Z,66.60
2022-08-09T10:27:57.997Z,66.50
2022-08-09T10:33:29.902Z,67.30
2022-08-09T10:36:11.841Z,69.00
2022-08-09T10:38:57.257Z,66.70
2022-08-09T10:41:28.261Z,67.90
2022-08-09T10:43:59.929Z,67.70
2022-08-09T10:47:00.739Z,67.70
2022-08-09T10:49:54.050Z,67.40
2022-08-09T10:53:00.128Z,68.70
2022-08-09T10:55:35.733Z,68.80
2022-08-09T10:58:37.477Z,69.30
2022-08-09T11:03:02.075Z,70.20
2022-08-09T11:04:29.717Z,69.30
2022-08-09T11:06:59.967Z,70.10
2022-08-09T11:09:48.758Z,68.50
2022-08-09T11:12:18.493Z,67.70
2022-08-09T11:14:53.361Z,68.50
2022-08-09T11:17:23.772Z,68.70
2022-08-09T11:20:11.262Z,69.20
2022-08-09T11:22:55.298Z,69.50
2022-08-09T11:25:44.634Z,69.00
2022-08-09T11:28:54.707Z,69.50
2022-08-09T11:31:43.334Z,70.00
2022-08-09T11:34:48.403Z,70.40
2022-08-09T11:37:27.993Z,70.80
2022-08-09T11:40:11.119Z,69.90
2022-08-09T11:42:39.870Z,69.90
2022-08-09T11:45:26.205Z,71.10
2022-08-09T11:48:26.418Z,70.10
2022-08-09T11:52:48.785Z,69.30
2022-08-09T11:53:59.066Z,70.10
2022-08-09T11:56:41.298Z,69.40
2022-08-09T11:59:10.727Z,69.60
2022-08-09T12:02:16.954Z,68.80
2022-08-09T12:04:32.315Z,69.50
2022-08-09T12:07:07.627Z,68.60
2022-08-09T12:09:36.264Z,67.40
2022-08-09T12:12:05.028Z,67.40
2022-08-09T12:14:40.819Z,67.20
2022-08-09T12:17:33.984Z,67.30
2022-08-09T12:20:29.106Z,67.20
2022-08-09T12:23:02.981Z,66.90
2022-08-09T12:25:37.074Z,65.90
2022-08-09T12:29:11.489Z,66.10
2022-08-09T12:30:57.949Z,66.90
2022-08-09T12:33:26.445Z,67.90
2022-08-09T12:36:15.549Z,67.30
2022-08-09T12:38:55.894Z,65.10
2022-08-09T12:41:36.338Z,64.70
2022-08-09T12:44:09.663Z,64.00
2022-08-09T12:46:39.451Z,64.80
2022-08-09T12:49:08.457Z,64.80
2022-08-09T12:52:01.203Z,63.80
2022-08-09T12:54:23.900Z,63.70
2022-08-09T12:56:53.926Z,65.20
2022-08-09T12:59:57.830Z,65.50
2022-08-09T13:02:15.226Z,64.40
2022-08-09T13:04:58.864Z,64.50
2022-08-09T13:07:28.458Z,64.60
2022-08-09T13:10:13.343Z,65.60
2022-08-09T13:13:08.699Z,66.20
2022-08-09T13:15:35.214Z,67.00
2022-08-09T13:18:09.422Z,66.00
2022-08-09T13:22:34.193Z,65.90
2022-08-09T13:24:17.188Z,65.30
2022-08-09T13:26:36.763Z,65.40
2022-08-09T13:29:20.239Z,65.40
2022-08-09T13:32:15.991Z,65.20
2022-08-09T13:34:47.581Z,65.30
2022-08-09T13:37:50.666Z,65.80
2022-08-09T13:41:45.995Z,66.00
2022-08-09T13:42:52.232Z,65.80
2022-08-09T13:45:20.056Z,66.20
2022-08-09T13:47:51.871Z,66.30
2022-08-09T13:50:30.813Z,65.80
2022-08-09T13:52:58.460Z,65.60
2022-08-09T13:55:28.969Z,65.00
2022-08-09T13:57:58.496Z,65.20
2022-08-09T14:00:29.488Z,65.80
2022-08-09T14:03:02.936Z,66.90
2022-08-09T14:05:58.604Z,66.50
2022-08-09T14:08:30.185Z,67.20
2022-08-09T14:10:57.821Z,67.10
2022-08-09T14:14:15.311Z,67.00
2022-08-09T14:16:16.982Z,68.10
2022-08-09T14:18:49.509Z,67.80
2022-08-09T14:21:21.060Z,67.40
2022-08-09T14:23:55.175Z,67.30
2022-08-09T14:26:31.926Z,67.80
2022-08-09T14:29:07.884Z,67.70
2022-08-09T14:31:54.847Z,68.10
2022-08-09T14:34:31.134Z,67.20
2022-08-09T14:37:06.872Z,68.10
2022-08-09T14:39:40.057Z,68.10
2022-08-09T14:42:12.785Z,67.90
2022-08-09T14:44:59.407Z,67.00
2022-08-09T14:47:45.027Z,67.30
2022-08-09T14:50:16.135Z,67.60
2022-08-09T14:52:47.776Z,67.80
2022-08-09T14:55:20.441Z,67.40
2022-08-09T14:57:49.736Z,67.40
2022-08-09T15:00:17.540Z,67.40
2022-08-09T15:02:47.455Z,66.70
2022-08-09T15:05:19.910Z,66.90
2022-08-09T15:07:56.431Z,67.20
2022-08-09T15:10:26.921Z,67.60
2022-08-09T15:12:55.893Z,68.00
2022-08-09T15:15:24.337Z,68.40
2022-08-09T15:17:55.998Z,68.00
2022-08-09T15:21:57.883Z,68.10
2022-08-09T15:24:03.763Z,67.80
2022-08-09T15:25:58.814Z,66.90
2022-08-09T15:28:28.441Z,67.20
2022-08-09T15:31:08.946Z,67.60
2022-08-09T15:34:17.489Z,67.40
2022-08-09T15:36:29.355Z,66.80
2022-08-09T15:38:59.941Z,67.20
2022-08-09T15:41:31.660Z,67.50
2022-08-09T15:44:04.054Z,67.40
2022-08-09T15:46:34.505Z,68.10
2022-08-09T15:49:20.834Z,68.50
2022-08-09T15:52:05.032Z,67.70
2022-08-09T15:54:51.438Z,67.30
2022-08-09T15:57:34.159Z,67.60
2022-08-09T16:00:09.284Z,68.50
2022-08-09T16:02:41.726Z,68.40
2022-08-09T16:05:09.980Z,68.50
2022-08-09T16:07:39.543Z,69.10
2022-08-09T16:10:38.397Z,68.70
2022-08-09T16:13:01.238Z,69.10
2022-08-09T16:16:04.787Z,69.90
2022-08-09T16:18:15.800Z,69.80
2022-08-09T16:20:43.406Z,70.00
2022-08-09T16:23:14.232Z,70.40
2022-08-09T16:25:44.719Z,70.70
2022-08-09T16:28:17.025Z,71.60
2022-08-09T16:30:44.635Z,71.70
2022-08-09T16:33:15.954Z,72.20
2022-08-09T16:35:55.869Z,72.20
2022-08-09T16:38:25.927Z,72.60
2022-08-09T16:40:53.424Z,72.50
2022-08-09T16:43:22.607Z,72.60
2022-08-09T16:45:53.516Z,72.60
2022-08-09T16:48:43.172Z,72.90
2022-08-09T16:51:13.819Z,73.30
2022-08-09T16:54:09.134Z,73.30
2022-08-09T16:56:31.493Z,73.30
2022-08-09T16:59:01.063Z,72.70
2022-08-09T17:01:34.029Z,73.10
2022-08-09T17:04:03.099Z,72.70
2022-08-09T17:06:33.551Z,72.50
2022-08-09T17:09:45.539Z,72.50
2022-08-09T17:12:01.925Z,72.90
2022-08-09T17:14:34.671Z,73.40
2022-08-09T17:17:04.025Z,73.70
2022-08-09T17:20:28.815Z,73.80
2022-08-09T17:22:49.986Z,74.20
2022-08-09T17:25:22.049Z,74.50
2022-08-09T17:27:53.912Z,74.70
2022-08-09T17:30:26.108Z,75.10
2022-08-09T17:32:54.454Z,75.30
2022-08-09T17:35:25.760Z,76.00
2022-08-09T17:38:11.943Z,75.60
2022-08-09T17:40:40.589Z,75.40
2022-08-09T17:43:32.991Z,75.50
2022-08-09T17:46:02.577Z,75.80
2022-08-09T17:48:32.558Z,76.10
2022-08-09T17:51:10.390Z,76.40
2022-08-09T17:53:52.962Z,76.40
2022-08-09T17:56:26.731Z,76.40
2022-08-09T17:59:00.735Z,76.50
2022-08-09T18:01:58.225Z,76.70
2022-08-09T18:04:18.378Z,76.90
2022-08-09T18:06:49.791Z,77.00
2022-08-09T18:09:23.047Z,77.10
2022-08-09T18:12:05.708Z,77.30
2022-08-09T18:14:37.651Z,77.50
2022-08-09T18:17:18.801Z,77.60
2022-08-09T18:20:54.435Z,77.70
2022-08-09T18:22:44.207Z,78.20
2022-08-09T18:25:19.653Z,77.60
2022-08-09T18:28:04.893Z,77.80
2022-08-09T18:30:39.734Z,77.90
2022-08-09T18:33:23.097Z,78.00
2022-08-09T18:35:58.947Z,78.00
2022-08-09T18:38:28.249Z,77.90
2022-08-09T18:40:55.673Z,77.70
2022-08-09T18:43:23.757Z,77.60
2022-08-09T18:46:46.905Z,77.70
2022-08-09T18:48:39.298Z,77.90
2022-08-09T18:51:14.092Z,78.20
2022-08-09T18:54:00.826Z,78.50
2022-08-09T18:56:29.737Z,78.50
2022-08-09T18:58:57.411Z,81.70
2022-08-09T19:01:25.011Z,83.30
2022-08-09T19:04:01.343Z,83.80
2022-08-09T19:06:34.952Z,84.30
2022-08-09T19:09:07.554Z,84.90
2022-08-09T19:11:37.706Z,85.00
2022-08-09T19:14:06.941Z,85.40
2022-08-09T19:16:36.582Z,85.80
2022-08-09T19:19:25.122Z,86.50
2022-08-09T19:22:06.825Z,87.50
2022-08-09T19:25:09.851Z,88.10
2022-08-09T19:27:23.255Z,89.00
2022-08-09T19:30:21.108Z,89.60
2022-08-09T19:32:37.592Z,90.00
2022-08-09T19:35:05.507Z,90.30
2022-08-09T19:37:54.633Z,90.60
2022-08-09T19:40:21.583Z,90.90
2022-08-09T19:42:49.785Z,91.20
2022-08-09T19:45:17.821Z,91.60
2022-08-09T19:47:46.120Z,91.90
2022-08-09T19:50:49.206Z,92.10
2022-08-09T19:53:04.080Z,92.60
2022-08-09T19:56:03.332Z,93.10
2022-08-09T19:58:30.131Z,93.50
2022-08-09T20:00:58.056Z,93.80
2022-08-09T20:04:17.954Z,94.40
2022-08-09T20:06:23.605Z,94.80
2022-08-09T20:08:57.718Z,95.30
2022-08-09T20:11:33.891Z,95.80
2022-08-09T20:14:15.352Z,96.10
2022-08-09T20:16:53.312Z,96.70
2022-08-09T20:19:48.775Z,97.10
2022-08-09T20:22:14.581Z,97.80
2022-08-09T20:24:42.820Z,98.30
2022-08-09T20:27:21.400Z,98.80
2022-08-09T20:29:49.771Z,99.00
2022-08-09T20:32:30.830Z,99.50
2022-08-09T20:35:01.531Z,99.90
2022-08-09T20:38:08.640Z,99.90
2022-08-09T20:40:19.193Z,99.90
2022-08-09T20:42:59.832Z,99.90
2022-08-09T20:45:59.836Z,99.90
2022-08-09T20:48:15.677Z,99.90
2022-08-09T20:50:51.068Z,99.90
2022-08-09T20:53:36.868Z,99.90
2022-08-09T20:56:08.973Z,99.90
2022-08-09T20:58:36.484Z,99.90
2022-08-09T21:01:32.422Z,99.90
2022-08-09T21:05:52.442Z,99.90
2022-08-09T21:06:43.019Z,99.90
2022-08-09T21:09:13.956Z,99.90
2022-08-09T21:14:30.890Z,99.90
2022-08-09T21:17:00.045Z,99.90
2022-08-09T21:20:19.303Z,99.90
2022-08-09T21:22:36.271Z,99.90
2022-08-09T21:25:02.694Z,99.90
2022-08-09T21:27:51.900Z,99.90
2022-08-09T21:30:18.620Z,99.90
2022-08-09T21:32:46.671Z,99.90
2022-08-09T21:35:13.877Z,99.90
2022-08-09T21:37:59.368Z,99.90
2022-08-09T21:40:30.364Z,99.90
2022-08-09T21:43:00.850Z,99.90
2022-08-09T21:45:28.523Z,99.90
2022-08-09T21:47:58.854Z,99.90
2022-08-09T21:50:38.630Z,99.90
2022-08-09T21:53:15.613Z,99.90
2022-08-09T21:55:50.979Z,99.90
2022-08-09T21:58:18.424Z,99.90
2022-08-09T22:00:48.707Z,99.90
2022-08-09T22:03:25.772Z,99.90
2022-08-09T22:05:54.367Z,99.90
2022-08-09T22:08:24.773Z,99.90
2022-08-09T22:11:50.167Z,99.90
2022-08-09T22:13:43.348Z,99.90
2022-08-09T22:16:11.512Z,99.90
2022-08-09T22:18:54.327Z,99.90
2022-08-09T22:21:27.429Z,99.90
2022-08-09T22:24:16.960Z,99.90
2022-08-09T22:26:51.594Z,99.90
2022-08-09T22:29:19.852Z,99.90
2022-08-09T22:31:56.756Z,99.90
2022-08-09T22:34:26.790Z,99.90
2022-08-09T22:36:56.159Z,99.90
2022-08-09T22:39:56.091Z,99.90
2022-08-09T22:42:22.152Z,99.90
2022-08-09T22:48:06.196Z,99.90
2022-08-09T22:48:15.664Z,99.90
2022-08-09T22:50:29.099Z,99.90
2022-08-09T22:52:58.327Z,99.90
2022-08-09T22:55:39.697Z,99.90
2022-08-09T22:58:20.334Z,99.90
2022-08-09T23:00:58.300Z,99.90
2022-08-09T23:04:02.628Z,99.90
2022-08-09T23:06:14.034Z,99.90
2022-08-09T23:08:42.205Z,99.90
2022-08-09T23:11:09.228Z,99.90
2022-08-09T23:13:36.312Z,99.90
2022-08-09T23:16:04.211Z,99.90
2022-08-09T23:18:31.448Z,99.90
2022-08-09T23:20:58.478Z,99.90
2022-08-09T23:23:26.001Z,99.90
2022-08-09T23:25:53.030Z,99.90
2022-08-09T23:28:20.074Z,99.90
2022-08-09T23:30:51.325Z,99.90
2022-08-09T23:33:20.996Z,99.90
2022-08-09T23:36:06.208Z,99.90
2022-08-09T23:38:35.241Z,99.90
2022-08-09T23:41:03.464Z,99.90
2022-08-09T23:43:30.581Z,99.90
2022-08-09T23:45:57.676Z,99.90
2022-08-09T23:48:25.171Z,99.90
2022-08-09T23:50:52.171Z,99.90
2022-08-09T23:53:19.170Z,99.90
2022-08-09T23:55:54.536Z,99.90
2022-08-09T23:58:25.852Z,99.90
